createdAt,value
2019-04-06T00:02:04.775Z,99306.17
2019-04-06T00:04:36.154Z,99313.17
2019-04-06T00:07:09.295Z,99315.35
2019-04-06T00:09:40.674Z,99311.84
2019-04-06T00:12:12.110Z,99310.09
2019-04-06T00:14:43.527Z,99315.33
2019-04-06T00:17:14.905Z,99316.20
2019-04-06T00:19:46.203Z,99315.77
2019-04-06T00:22:17.514Z,99310.48
2019-04-06T00:24:48.856Z,99309.17
2019-04-06T00:27:20.175Z,99306.95
2019-04-06T00:29:51.470Z,99310.89
2019-04-06T00:32:22.545Z,99306.93
2019-04-06T00:34:53.961Z,99308.67
2019-04-06T00:37:31.417Z,99303.86
2019-04-06T00:40:02.700Z,99292.02
2019-04-06T00:42:35.132Z,99295.48
2019-04-06T00:45:09.351Z,99295.89
2019-04-06T00:47:40.770Z,99292.37
2019-04-06T00:50:12.373Z,99292.80
2019-04-06T00:52:43.603Z,99291.02
2019-04-06T00:55:23.990Z,99291.00
2019-04-06T00:57:55.274Z,99290.10
2019-04-06T01:00:27.638Z,99290.96
2019-04-06T01:02:58.862Z,99292.70
2019-04-06T01:05:36.196Z,99284.82
2019-04-06T01:08:08.505Z,99281.31
2019-04-06T01:10:39.934Z,99280.42
2019-04-06T01:13:11.236Z,99286.08
2019-04-06T01:15:42.821Z,99285.19
2019-04-06T01:18:14.117Z,99293.05
2019-04-06T01:20:46.206Z,99290.86
2019-04-06T01:23:17.559Z,99294.81
2019-04-06T01:25:48.856Z,99294.80
2019-04-06T01:28:21.119Z,99302.68
2019-04-06T01:30:52.514Z,99300.05
2019-04-06T01:33:23.885Z,99296.89
2019-04-06T01:35:55.175Z,99292.91
2019-04-06T01:38:26.479Z,99301.66
2019-04-06T01:41:07.518Z,99298.59
2019-04-06T01:43:38.862Z,99296.39
2019-04-06T01:46:10.280Z,99300.30
2019-04-06T01:48:46.004Z,99302.88
2019-04-06T01:51:17.500Z,99299.29
2019-04-06T01:53:48.809Z,99301.06
2019-04-06T01:56:21.222Z,99301.03
2019-04-06T01:58:52.540Z,99302.33
2019-04-06T02:01:26.595Z,99299.63
2019-04-06T02:03:57.826Z,99296.52
2019-04-06T02:06:29.197Z,99298.20
2019-04-06T02:09:00.508Z,99302.13
2019-04-06T02:11:33.513Z,99291.15
2019-04-06T02:14:06.587Z,99296.05
2019-04-06T02:16:37.994Z,99292.56
2019-04-06T02:19:09.299Z,99286.88
2019-04-06T02:21:40.661Z,99292.08
2019-04-06T02:24:11.903Z,99290.70
2019-04-06T02:26:43.333Z,99288.50
2019-04-06T02:29:14.849Z,99286.38
2019-04-06T02:32:03.859Z,99285.56
2019-04-06T02:34:42.410Z,99283.00
2019-04-06T02:37:13.516Z,99286.49
2019-04-06T02:39:50.649Z,99286.47
2019-04-06T02:42:26.586Z,99290.31
2019-04-06T02:44:57.889Z,99286.78
2019-04-06T02:47:32.059Z,99288.96
2019-04-06T02:50:04.344Z,99293.39
2019-04-06T02:52:35.808Z,99287.29
2019-04-06T02:55:07.274Z,99293.89
2019-04-06T02:57:38.828Z,99294.34
2019-04-06T03:00:11.107Z,99293.41
2019-04-06T03:02:44.209Z,99295.16
2019-04-06T03:05:16.580Z,99299.53
2019-04-06T03:07:47.880Z,99296.05
2019-04-06T03:10:21.074Z,99298.25
2019-04-06T03:12:52.506Z,99301.33
2019-04-06T03:15:23.865Z,99298.70
2019-04-06T03:17:55.209Z,99301.34
2019-04-06T03:20:26.507Z,99295.68
2019-04-06T03:22:57.824Z,99290.02
2019-04-06T03:25:32.617Z,99289.53
2019-04-06T03:28:06.248Z,99289.48
2019-04-06T03:30:44.488Z,99288.62
2019-04-06T03:33:15.956Z,99288.20
2019-04-06T03:35:49.392Z,99292.61
2019-04-06T03:38:20.320Z,99291.73
2019-04-06T03:40:52.811Z,99290.43
2019-04-06T03:43:24.085Z,99288.27
2019-04-06T03:45:55.317Z,99293.98
2019-04-06T03:48:26.734Z,99294.00
2019-04-06T03:51:01.282Z,99294.47
2019-04-06T03:53:34.749Z,99290.56
2019-04-06T03:56:06.144Z,99289.70
2019-04-06T03:58:37.602Z,99291.82
2019-04-06T04:01:08.957Z,99297.06
2019-04-06T04:03:40.469Z,99298.81
2019-04-06T04:06:11.775Z,99296.64
2019-04-06T04:08:43.085Z,99298.33
2019-04-06T04:11:14.358Z,99297.48
2019-04-06T04:13:45.862Z,99299.25
2019-04-06T04:16:18.975Z,99295.72
2019-04-06T04:18:50.369Z,99304.04
2019-04-06T04:21:21.707Z,99297.02
2019-04-06T04:23:53.296Z,99295.62
2019-04-06T04:26:24.593Z,99292.47
2019-04-06T04:28:56.018Z,99289.27
2019-04-06T04:31:27.402Z,99291.88
2019-04-06T04:33:59.769Z,99293.19
2019-04-06T04:36:31.129Z,99290.16
2019-04-06T04:39:08.130Z,99298.92
2019-04-06T04:41:46.437Z,99295.78
2019-04-06T04:44:19.832Z,99294.86
2019-04-06T04:46:52.201Z,99298.81
2019-04-06T04:49:23.647Z,99298.73
2019-04-06T04:51:55.052Z,99299.59
2019-04-06T04:54:26.383Z,99307.77
2019-04-06T04:56:57.742Z,99307.73
2019-04-06T04:59:29.039Z,99308.65
2019-04-06T05:02:07.528Z,99310.80
2019-04-06T05:04:39.035Z,99316.09
2019-04-06T05:07:13.863Z,99316.97
2019-04-06T05:09:45.346Z,99319.17
2019-04-06T05:12:16.881Z,99323.55
2019-04-06T05:15:22.803Z,99322.16
2019-04-06T05:17:54.110Z,99320.02
2019-04-06T05:20:25.416Z,99331.75
2019-04-06T05:22:56.910Z,99336.43
2019-04-06T05:25:28.374Z,99335.49
2019-04-06T05:27:59.677Z,99337.63
2019-04-06T05:30:31.109Z,99334.85
2019-04-06T05:33:02.488Z,99335.98
2019-04-06T05:35:34.085Z,99335.53
2019-04-06T05:38:15.416Z,99337.03
2019-04-06T05:40:46.768Z,99336.09
2019-04-06T05:43:18.334Z,99346.13
2019-04-06T05:45:49.657Z,99345.41
2019-04-06T05:48:20.961Z,99347.25
2019-04-06T05:50:52.324Z,99354.36
2019-04-06T05:53:23.607Z,99356.27
2019-04-06T05:55:54.962Z,99356.85
2019-04-06T05:58:26.280Z,99361.31
2019-04-06T06:01:04.461Z,99368.25
2019-04-06T06:03:35.728Z,99376.18
2019-04-06T06:06:07.255Z,99376.31
2019-04-06T06:08:38.620Z,99375.10
2019-04-06T06:11:09.961Z,99372.59
2019-04-06T06:13:48.047Z,99373.52
2019-04-06T06:16:19.497Z,99377.53
2019-04-06T06:18:52.596Z,99365.78
2019-04-06T06:21:24.115Z,99367.38
2019-04-06T06:23:55.342Z,99360.30
2019-04-06T06:26:26.823Z,99368.26
2019-04-06T06:28:59.158Z,99366.03
2019-04-06T06:31:30.612Z,99375.00
2019-04-06T06:34:02.697Z,99380.36
2019-04-06T06:36:34.307Z,99380.17
2019-04-06T06:39:08.373Z,99381.17
2019-04-06T06:41:39.768Z,99384.66
2019-04-06T06:44:11.297Z,99384.91
2019-04-06T06:46:42.644Z,99383.20
2019-04-06T06:49:13.867Z,99382.45
2019-04-06T06:51:45.144Z,99386.81
2019-04-06T06:54:16.581Z,99389.02
2019-04-06T06:56:48.000Z,99389.94
2019-04-06T06:59:19.309Z,99386.56
2019-04-06T07:01:50.577Z,99383.98
2019-04-06T07:04:21.812Z,99389.36
2019-04-06T07:06:53.171Z,99385.91
2019-04-06T07:09:24.481Z,99388.52
2019-04-06T07:11:56.138Z,99387.61
2019-04-06T07:14:27.399Z,99391.48
2019-04-06T07:16:58.852Z,99394.60
2019-04-06T07:19:31.537Z,99395.48
2019-04-06T07:22:02.885Z,99393.41
2019-04-06T07:24:34.228Z,99400.10
2019-04-06T07:27:06.757Z,99402.39
2019-04-06T07:29:38.169Z,99401.18
2019-04-06T07:32:15.348Z,99397.17
2019-04-06T07:34:46.950Z,99387.20
2019-04-06T07:37:18.229Z,99387.72
2019-04-06T07:39:49.526Z,99381.60
2019-04-06T07:42:27.096Z,99379.59
2019-04-06T07:45:04.361Z,99380.16
2019-04-06T07:47:36.035Z,99384.61
2019-04-06T07:50:10.500Z,99386.89
2019-04-06T07:52:46.429Z,99383.83
2019-04-06T07:55:17.770Z,99386.13
2019-04-06T07:57:49.152Z,99384.85
2019-04-06T08:00:20.832Z,99373.12
2019-04-06T08:02:55.043Z,99377.58
2019-04-06T08:05:26.605Z,99370.60
2019-04-06T08:07:58.245Z,99371.52
2019-04-06T08:10:29.741Z,99370.25
2019-04-06T08:13:02.256Z,99365.88
2019-04-06T08:15:35.760Z,99361.94
2019-04-06T08:18:08.364Z,99362.88
2019-04-06T08:20:40.695Z,99362.91
2019-04-06T08:23:12.029Z,99355.95
2019-04-06T08:25:43.472Z,99357.30
2019-04-06T08:28:14.748Z,99356.41
2019-04-06T08:30:52.052Z,99358.17
2019-04-06T08:33:25.546Z,99352.04
2019-04-06T08:35:57.157Z,99349.44
2019-04-06T08:38:30.473Z,99348.59
2019-04-06T08:41:05.343Z,99339.36
2019-04-06T08:43:36.691Z,99335.41
2019-04-06T08:46:07.994Z,99329.67
2019-04-06T08:48:39.279Z,99335.34
2019-04-06T08:51:10.578Z,99338.41
2019-04-06T08:53:42.030Z,99334.86
2019-04-06T08:56:14.980Z,99344.88
2019-04-06T08:58:46.468Z,99339.13
2019-04-06T09:01:17.838Z,99343.86
2019-04-06T09:03:49.115Z,99341.57
2019-04-06T09:06:20.355Z,99351.61
2019-04-06T09:08:53.083Z,99348.03
2019-04-06T09:11:24.410Z,99354.16
2019-04-06T09:13:55.934Z,99353.61
2019-04-06T09:16:27.384Z,99349.95
2019-04-06T09:18:58.864Z,99343.20
2019-04-06T09:21:31.686Z,99345.70
2019-04-06T09:24:03.151Z,99341.21
2019-04-06T09:26:34.547Z,99333.17
2019-04-06T09:29:06.264Z,99326.92
2019-04-06T09:31:37.866Z,99330.89
2019-04-06T09:34:09.485Z,99323.74
2019-04-06T09:36:42.611Z,99317.95
2019-04-06T09:39:15.688Z,99314.30
2019-04-06T09:41:46.977Z,99304.83
2019-04-06T09:44:25.729Z,99301.97
2019-04-06T09:47:01.525Z,99306.75
2019-04-06T09:49:34.482Z,99300.86
2019-04-06T09:52:24.619Z,99296.16
2019-04-06T09:54:57.554Z,99303.88
2019-04-06T09:57:31.514Z,99296.12
2019-04-06T10:00:07.258Z,99296.71
2019-04-06T10:02:55.989Z,99291.16
2019-04-06T10:05:31.600Z,99292.30
2019-04-06T10:08:17.156Z,99284.76
2019-04-06T10:10:59.196Z,99277.50
2019-04-06T10:13:39.337Z,99282.23
2019-04-06T10:16:25.383Z,99282.06
2019-04-06T10:19:08.752Z,99274.91
2019-04-06T10:21:53.085Z,99272.27
2019-04-06T10:24:42.049Z,99273.98
2019-04-06T10:27:25.389Z,99280.95
2019-04-06T10:30:14.706Z,99284.45
2019-04-06T10:32:47.670Z,99282.66
2019-04-06T10:35:27.369Z,99284.09
2019-04-06T10:38:05.999Z,99285.05
2019-04-06T10:40:52.135Z,99274.59
2019-04-06T10:43:28.173Z,99269.11
2019-04-06T10:46:18.079Z,99253.19
2019-04-06T10:48:51.000Z,99252.22
2019-04-06T10:51:41.340Z,99245.62
2019-04-06T10:54:16.275Z,99236.17
2019-04-06T10:56:53.431Z,99238.73
2019-04-06T10:59:39.207Z,99234.61
2019-04-06T11:02:29.375Z,99232.73
2019-04-06T11:05:02.338Z,99231.23
2019-04-06T11:07:38.260Z,99227.04
2019-04-06T11:10:11.398Z,99229.52
2019-04-06T11:12:44.524Z,99227.95
2019-04-06T11:15:23.343Z,99225.16
2019-04-06T11:18:02.473Z,99227.45
2019-04-06T11:20:37.499Z,99217.75
2019-04-06T11:23:23.900Z,99222.32
2019-04-06T11:26:09.972Z,99218.72
2019-04-06T11:28:46.526Z,99213.39
2019-04-06T11:31:19.697Z,99211.08
2019-04-06T11:34:09.980Z,99200.33
2019-04-06T11:36:59.117Z,99196.27
2019-04-06T11:39:30.204Z,99195.05
2019-04-06T11:42:03.160Z,99201.05
2019-04-06T11:44:38.184Z,99194.84
2019-04-06T11:47:27.568Z,99196.20
2019-04-06T11:50:00.593Z,99194.66
2019-04-06T11:52:33.703Z,99199.19
2019-04-06T11:55:08.291Z,99204.77
2019-04-06T11:58:06.243Z,99194.28
2019-04-06T12:00:42.037Z,99198.94
2019-04-06T12:03:15.079Z,99194.67
2019-04-06T12:05:53.946Z,99200.42
2019-04-06T12:08:25.625Z,99203.90
2019-04-06T12:11:11.559Z,99197.23
2019-04-06T12:13:56.512Z,99190.89
2019-04-06T12:16:35.022Z,99186.02
2019-04-06T12:19:10.797Z,99190.83
2019-04-06T12:21:51.138Z,99192.05
2019-04-06T12:24:35.884Z,99189.95
2019-04-06T12:27:20.709Z,99189.38
2019-04-06T12:29:55.166Z,99194.47
2019-04-06T12:32:38.923Z,99193.59
2019-04-06T12:35:25.305Z,99188.11
2019-04-06T12:38:00.761Z,99189.28
2019-04-06T12:40:41.897Z,99182.04
2019-04-06T12:43:22.146Z,99178.54
2019-04-06T12:46:07.994Z,99184.48
2019-04-06T12:48:56.814Z,99176.13
2019-04-06T12:51:33.828Z,99182.89
2019-04-06T12:54:24.075Z,99179.58
2019-04-06T12:57:06.361Z,99187.77
2019-04-06T12:59:51.280Z,99176.80
2019-04-06T13:02:30.443Z,99172.53
2019-04-06T13:05:06.315Z,99166.41
2019-04-06T13:07:55.469Z,99172.88
2019-04-06T13:10:26.761Z,99172.41
2019-04-06T13:13:00.043Z,99175.27
2019-04-06T13:15:36.568Z,99166.59
2019-04-06T13:18:10.045Z,99171.97
2019-04-06T13:21:01.281Z,99173.85
2019-04-06T13:23:34.328Z,99165.17
2019-04-06T13:26:19.474Z,99168.66
2019-04-06T13:29:01.666Z,99168.26
2019-04-06T13:31:35.927Z,99171.95
2019-04-06T13:34:22.095Z,99167.59
2019-04-06T13:36:56.267Z,99165.99
2019-04-06T13:39:37.785Z,99159.53
2019-04-06T13:42:27.119Z,99162.97
2019-04-06T13:45:05.839Z,99171.16
2019-04-06T13:47:36.982Z,99170.30
2019-04-06T13:50:26.989Z,99166.25
2019-04-06T13:53:15.930Z,99162.81
2019-04-06T13:55:48.969Z,99153.33
2019-04-06T13:58:27.967Z,99155.37
2019-04-06T14:01:19.638Z,99153.84
2019-04-06T14:03:55.176Z,99160.92
2019-04-06T14:06:40.271Z,99153.34
2019-04-06T14:09:14.949Z,99152.92
2019-04-06T14:12:05.239Z,99153.13
2019-04-06T14:14:38.217Z,99155.52
2019-04-06T14:17:32.664Z,99149.32
2019-04-06T14:20:19.345Z,99147.98
2019-04-06T14:22:52.531Z,99147.41
2019-04-06T14:25:29.624Z,99135.05
2019-04-06T14:28:02.711Z,99133.56
2019-04-06T14:30:40.089Z,99133.94
2019-04-06T14:33:16.674Z,99129.41
2019-04-06T14:35:52.320Z,99126.17
2019-04-06T14:38:27.665Z,99118.75
2019-04-06T14:41:16.419Z,99116.63
2019-04-06T14:43:48.777Z,99119.56
2019-04-06T14:46:22.076Z,99126.52
2019-04-06T14:49:09.492Z,99125.43
2019-04-06T14:51:51.533Z,99126.86
2019-04-06T14:54:27.265Z,99131.99
2019-04-06T14:57:03.117Z,99128.47
2019-04-06T14:59:52.326Z,99121.66
2019-04-06T15:02:40.763Z,99125.73
2019-04-06T15:05:27.478Z,99120.34
2019-04-06T15:08:01.486Z,99119.36
2019-04-06T15:10:49.684Z,99119.43
2019-04-06T15:13:28.668Z,99113.27
2019-04-06T15:16:09.009Z,99108.59
2019-04-06T15:19:01.330Z,99099.76
2019-04-06T15:21:40.699Z,99100.89
2019-04-06T15:24:16.702Z,99098.83
2019-04-06T15:26:53.269Z,99095.00
2019-04-06T15:29:30.742Z,99094.53
2019-04-06T15:32:08.852Z,99087.77
2019-04-06T15:34:59.084Z,99093.66
2019-04-06T15:37:34.414Z,99098.16
2019-04-06T15:40:14.233Z,99085.27
2019-04-06T15:42:55.177Z,99082.33
2019-04-06T15:45:26.994Z,99078.61
2019-04-06T15:48:15.372Z,99078.13
2019-04-06T15:50:54.626Z,99074.36
2019-04-06T15:53:26.391Z,99080.45
2019-04-06T15:56:05.695Z,99073.61
2019-04-06T15:58:38.861Z,99072.53
2019-04-06T16:01:31.881Z,99073.58
2019-04-06T16:04:03.085Z,99059.25
2019-04-06T16:06:36.053Z,99060.11
2019-04-06T16:09:15.767Z,99057.87
2019-04-06T16:11:57.520Z,99053.26
2019-04-06T16:14:33.207Z,99052.77
2019-04-06T16:17:15.527Z,99048.95
2019-04-06T16:20:07.004Z,99051.62
2019-04-06T16:22:38.367Z,99046.21
2019-04-06T16:25:14.752Z,99039.99
2019-04-06T16:27:47.702Z,99039.52
2019-04-06T16:30:34.875Z,99038.51
2019-04-06T16:33:14.537Z,99034.03
2019-04-06T16:35:52.740Z,99035.63
2019-04-06T16:38:35.445Z,99044.95
2019-04-06T16:41:32.038Z,99040.80
2019-04-06T16:44:07.938Z,99049.19
2019-04-06T16:46:49.690Z,99048.06
2019-04-06T16:49:31.583Z,99048.72
2019-04-06T16:52:06.576Z,99048.95
2019-04-06T16:54:37.757Z,99044.19
2019-04-06T16:57:10.725Z,99044.77
2019-04-06T16:59:43.709Z,99045.57
2019-04-06T17:02:24.251Z,99043.53
2019-04-06T17:04:54.681Z,99043.02
2019-04-06T17:07:27.845Z,99047.95
2019-04-06T17:10:00.702Z,99051.59
2019-04-06T17:12:42.307Z,99052.47
2019-04-06T17:15:15.439Z,99048.28
2019-04-06T17:17:58.746Z,99041.53
2019-04-06T17:20:35.944Z,99042.98
2019-04-06T17:23:17.497Z,99039.41
2019-04-06T17:25:54.641Z,99044.19
2019-04-06T17:28:30.333Z,99043.99
2019-04-06T17:31:21.846Z,99045.59
2019-04-06T17:34:16.556Z,99046.16
2019-04-06T17:37:06.848Z,99042.95
2019-04-06T17:39:50.273Z,99054.74
2019-04-06T17:42:49.010Z,99053.56
2019-04-06T17:45:31.375Z,99051.15
2019-04-06T17:48:29.971Z,99044.47
2019-04-06T17:51:10.293Z,99048.25
2019-04-06T17:54:02.896Z,99051.98
2019-04-06T17:56:45.597Z,99050.74
2019-04-06T17:59:32.407Z,99045.61
2019-04-06T18:02:22.468Z,99051.73
2019-04-06T18:05:18.564Z,99053.52
2019-04-06T18:08:00.187Z,99046.18
2019-04-06T18:10:45.440Z,99045.63
2019-04-06T18:13:26.656Z,99043.32
2019-04-06T18:16:12.723Z,99043.72
2019-04-06T18:18:54.805Z,99044.82
2019-04-06T18:21:38.341Z,99045.75
2019-04-06T18:24:25.944Z,99048.16
2019-04-06T18:27:00.015Z,99052.22
2019-04-06T18:29:40.467Z,99055.08
2019-04-06T18:32:26.081Z,99064.00
2019-04-06T18:35:10.815Z,99060.22
2019-04-06T18:37:48.782Z,99057.80
2019-04-06T18:43:25.703Z,99059.55
2019-04-06T18:45:57.652Z,99060.12
2019-04-06T18:48:29.316Z,99056.70
2019-04-06T18:51:01.101Z,99061.63
2019-04-06T18:53:37.624Z,99060.30
2019-04-06T18:56:09.687Z,99067.02
2019-04-06T18:58:44.146Z,99068.34
2019-04-06T19:01:15.644Z,99065.45
2019-04-06T19:03:47.291Z,99069.96
2019-04-06T19:06:24.586Z,99070.03
2019-04-06T19:08:57.593Z,99083.80
2019-04-06T19:11:28.951Z,99073.63
2019-04-06T19:14:00.338Z,99082.16
2019-04-06T19:16:35.517Z,99084.05
2019-04-06T19:19:06.866Z,99080.63
2019-04-06T19:21:38.764Z,99083.27
2019-04-06T19:24:10.329Z,99081.08
2019-04-06T19:26:42.189Z,99085.58
2019-04-06T19:29:13.723Z,99090.92
2019-04-06T19:31:46.778Z,99090.59
2019-04-06T19:34:18.251Z,99088.92
2019-04-06T19:36:49.943Z,99089.83
2019-04-06T19:39:21.693Z,99087.30
2019-04-06T19:41:53.805Z,99091.38
2019-04-06T19:44:27.160Z,99089.73
2019-04-06T19:46:58.646Z,99092.83
2019-04-06T19:49:33.213Z,99089.83
2019-04-06T19:52:10.723Z,99084.16
2019-04-06T19:54:42.368Z,99088.63
2019-04-06T19:57:14.790Z,99081.57
2019-04-06T19:59:46.192Z,99085.61
2019-04-06T20:02:17.509Z,99082.03
2019-04-06T20:04:48.810Z,99087.03
2019-04-06T20:07:20.660Z,99084.41
2019-04-06T20:09:52.189Z,99087.13
2019-04-06T20:12:23.631Z,99082.34
2019-04-06T20:14:54.911Z,99079.30
2019-04-06T20:17:26.357Z,99083.78
2019-04-06T20:19:57.746Z,99080.31
2019-04-06T20:22:29.550Z,99084.72
2019-04-06T20:25:02.026Z,99079.05
2019-04-06T20:27:36.553Z,99076.07
2019-04-06T20:30:11.281Z,99077.45
2019-04-06T20:32:42.933Z,99077.84
2019-04-06T20:35:16.787Z,99078.69
2019-04-06T20:37:48.209Z,99075.59
2019-04-06T20:40:21.035Z,99075.68
2019-04-06T20:42:52.689Z,99069.90
2019-04-06T20:45:24.656Z,99070.71
2019-04-06T20:47:57.694Z,99069.86
2019-04-06T20:50:29.032Z,99061.95
2019-04-06T20:53:01.416Z,99057.85
2019-04-06T20:55:33.161Z,99056.79
2019-04-06T20:58:04.663Z,99057.09
2019-04-06T21:00:36.269Z,99055.25
2019-04-06T21:03:07.592Z,99050.36
2019-04-06T21:05:39.471Z,99052.44
2019-04-06T21:08:10.974Z,99054.48
2019-04-06T21:10:42.870Z,99047.75
2019-04-06T21:13:14.546Z,99045.34
2019-04-06T21:15:46.042Z,99050.06
2019-04-06T21:18:17.798Z,99038.55
2019-04-06T21:20:49.542Z,99039.38
2019-04-06T21:23:20.981Z,99033.23
2019-04-06T21:25:52.795Z,99034.19
2019-04-06T21:28:31.074Z,99031.14
2019-04-06T21:31:02.452Z,99023.60
2019-04-06T21:33:33.975Z,99023.22
2019-04-06T21:36:06.240Z,99028.56
2019-04-06T21:38:37.729Z,99033.02
2019-04-06T21:41:09.022Z,99026.88
2019-04-06T21:43:40.427Z,99032.22
2019-04-06T21:46:12.210Z,99022.55
2019-04-06T21:48:43.586Z,99031.45
2019-04-06T21:51:14.867Z,99031.55
2019-04-06T21:53:46.771Z,99035.98
2019-04-06T21:56:19.155Z,99034.75
2019-04-06T21:58:50.651Z,99037.05
2019-04-06T22:01:23.038Z,99040.25
2019-04-06T22:03:55.655Z,99043.38
2019-04-06T22:06:27.068Z,99042.09
2019-04-06T22:08:58.531Z,99047.39
2019-04-06T22:11:29.952Z,99042.61
2019-04-06T22:14:01.866Z,99039.47
2019-04-06T22:16:33.655Z,99041.25
2019-04-06T22:19:07.932Z,99042.18
2019-04-06T22:21:39.523Z,99037.27
2019-04-06T22:24:11.453Z,99038.20
2019-04-06T22:26:42.828Z,99039.63
2019-04-06T22:29:14.260Z,99037.94
2019-04-06T22:31:45.788Z,99041.05
2019-04-06T22:34:18.282Z,99034.90
2019-04-06T22:36:49.669Z,99038.94
2019-04-06T22:39:21.531Z,99040.80
2019-04-06T22:41:52.878Z,99038.75
2019-04-06T22:44:24.183Z,99033.94
2019-04-06T22:46:55.562Z,99030.02
2019-04-06T22:49:27.211Z,99028.75
2019-04-06T22:51:59.402Z,99025.74
2019-04-06T22:54:30.916Z,99027.16
2019-04-06T22:57:02.752Z,99028.59
2019-04-06T22:59:34.651Z,99029.55
2019-04-06T23:02:06.441Z,99024.68
2019-04-06T23:04:51.191Z,99029.16
2019-04-06T23:07:23.627Z,99026.53
2019-04-06T23:09:54.920Z,99022.70
2019-04-06T23:12:26.303Z,99026.67
2019-04-06T23:14:57.598Z,99028.89
2019-04-06T23:17:28.850Z,99027.14
2019-04-06T23:20:00.305Z,99033.27
2019-04-06T23:22:31.770Z,99023.73
2019-04-06T23:25:03.148Z,99033.61
2019-04-06T23:27:37.710Z,99035.53
2019-04-06T23:30:12.271Z,99038.34
2019-04-06T23:32:43.733Z,99037.53
2019-04-06T23:35:15.243Z,99041.58
2019-04-06T23:37:47.092Z,99038.98
2019-04-06T23:40:18.599Z,99030.67
2019-04-06T23:42:49.926Z,99031.69
2019-04-06T23:45:21.862Z,99025.64
2019-04-06T23:47:53.770Z,99033.66
2019-04-06T23:50:25.165Z,99033.39
2019-04-06T23:52:56.512Z,99029.06
2019-04-06T23:55:28.193Z,99036.63
2019-04-06T23:57:59.578Z,99033.56
